createdAt,value
2023-04-22T00:00:47.211Z,1019.48
2023-04-22T00:03:14.251Z,1019.49
2023-04-22T00:05:41.422Z,1019.56
2023-04-22T00:08:08.282Z,1019.54
2023-04-22T00:10:35.169Z,1019.55
2023-04-22T00:13:03.319Z,1019.52
2023-04-22T00:15:30.109Z,1019.63
2023-04-22T00:17:58.443Z,1019.59
2023-04-22T00:20:25.445Z,1019.56
2023-04-22T00:22:52.290Z,1019.53
2023-04-22T00:25:19.737Z,1019.47
2023-04-22T00:27:46.606Z,1019.47
2023-04-22T00:30:15.185Z,1019.55
2023-04-22T00:32:42.122Z,1019.51
2023-04-22T00:35:09.042Z,1019.51
2023-04-22T00:37:35.907Z,1019.58
2023-04-22T00:40:02.897Z,1019.68
2023-04-22T00:42:30.183Z,1019.61
2023-04-22T00:44:57.218Z,1019.67
2023-04-22T00:47:25.936Z,1019.58
2023-04-22T00:49:53.695Z,1019.66
2023-04-22T00:52:20.500Z,1019.64
2023-04-22T00:54:47.294Z,1019.65
2023-04-22T00:57:14.085Z,1019.65
2023-04-22T00:59:41.246Z,1019.67
2023-04-22T01:02:08.442Z,1019.55
2023-04-22T01:04:36.780Z,1019.59
2023-04-22T01:07:03.561Z,1019.53
2023-04-22T01:09:30.793Z,1019.61
2023-04-22T01:11:57.687Z,1019.55
2023-04-22T01:14:24.644Z,1019.64
2023-04-22T01:16:52.302Z,1019.61
2023-04-22T01:19:19.245Z,1019.56
2023-04-22T01:21:50.573Z,1019.57
2023-04-22T01:24:19.132Z,1019.58
2023-04-22T01:26:46.649Z,1019.61
2023-04-22T01:29:14.506Z,1019.63
2023-04-22T01:31:41.591Z,1019.59
2023-04-22T01:34:08.488Z,1019.62
2023-04-22T01:36:35.389Z,1019.61
2023-04-22T01:39:02.199Z,1019.55
2023-04-22T01:41:30.469Z,1019.53
2023-04-22T01:43:58.529Z,1019.44
2023-04-22T01:46:25.445Z,1019.48
2023-04-22T01:48:52.211Z,1019.50
2023-04-22T01:51:19.620Z,1019.49
2023-04-22T01:53:46.581Z,1019.57
2023-04-22T01:56:13.389Z,1019.55
2023-04-22T01:58:41.811Z,1019.57
2023-04-22T02:01:10.156Z,1019.48
2023-04-22T02:03:37.318Z,1019.52
2023-04-22T02:06:04.843Z,1019.46
2023-04-22T02:08:31.601Z,1019.48
2023-04-22T02:10:58.469Z,1019.48
2023-04-22T02:13:25.352Z,1019.56
2023-04-22T02:15:53.499Z,1019.57
2023-04-22T02:18:20.304Z,1019.60
2023-04-22T02:20:47.062Z,1019.54
2023-04-22T02:23:14.053Z,1019.49
2023-04-22T02:25:41.193Z,1019.47
2023-04-22T02:28:07.980Z,1019.52
2023-04-22T02:30:34.802Z,1019.52
2023-04-22T02:33:03.006Z,1019.51
2023-04-22T02:35:29.838Z,1019.46
2023-04-22T02:37:56.548Z,1019.42
2023-04-22T02:40:23.548Z,1019.46
2023-04-22T02:42:50.719Z,1019.41
2023-04-22T02:45:17.726Z,1019.46
2023-04-22T02:47:44.593Z,1019.44
2023-04-22T02:50:12.998Z,1019.44
2023-04-22T02:52:39.916Z,1019.47
2023-04-22T02:55:08.130Z,1019.49
2023-04-22T02:57:34.857Z,1019.48
2023-04-22T03:00:02.539Z,1019.47
2023-04-22T03:02:29.496Z,1019.48
2023-04-22T03:04:56.360Z,1019.50
2023-04-22T03:07:24.633Z,1019.53
2023-04-22T03:09:51.468Z,1019.65
2023-04-22T03:12:18.271Z,1019.50
2023-04-22T03:14:45.055Z,1019.56
2023-04-22T03:17:11.790Z,1019.64
2023-04-22T03:19:39.331Z,1019.63
2023-04-22T03:22:06.437Z,1019.59
2023-04-22T03:24:34.660Z,1019.70
2023-04-22T03:27:01.418Z,1019.64
2023-04-22T03:29:28.170Z,1019.63
2023-04-22T03:31:54.937Z,1019.72
2023-04-22T03:34:21.721Z,1019.66
2023-04-22T03:36:48.446Z,1019.71
2023-04-22T03:39:15.202Z,1019.68
2023-04-22T03:41:43.360Z,1019.72
2023-04-22T03:44:10.161Z,1019.71
2023-04-22T03:46:36.974Z,1019.72
2023-04-22T03:49:04.152Z,1019.79
2023-04-22T03:51:30.986Z,1019.75
2023-04-22T03:53:57.815Z,1019.67
2023-04-22T03:56:24.676Z,1019.72
2023-04-22T03:58:52.905Z,1019.61
2023-04-22T04:01:19.675Z,1019.69
2023-04-22T04:03:46.752Z,1019.71
2023-04-22T04:06:13.652Z,1019.72
2023-04-22T04:08:40.403Z,1019.76
2023-04-22T04:11:09.619Z,1019.68
2023-04-22T04:13:36.356Z,1019.69
2023-04-22T04:16:05.041Z,1019.68
2023-04-22T04:18:31.851Z,1019.77
2023-04-22T04:20:58.618Z,1019.70
2023-04-22T04:23:25.474Z,1019.71
2023-04-22T04:25:52.426Z,1019.72
2023-04-22T04:28:19.367Z,1019.74
2023-04-22T04:30:46.154Z,1019.72
2023-04-22T04:33:14.446Z,1019.74
2023-04-22T04:35:41.322Z,1019.68
2023-04-22T04:38:08.117Z,1019.72
2023-04-22T04:40:35.214Z,1019.78
2023-04-22T04:43:02.008Z,1019.77
2023-04-22T04:45:29.126Z,1019.85
2023-04-22T04:47:56.051Z,1019.79
2023-04-22T04:50:24.264Z,1019.70
2023-04-22T04:52:52.804Z,1019.77
2023-04-22T04:55:20.051Z,1019.78
2023-04-22T04:57:47.230Z,1019.86
2023-04-22T05:00:14.348Z,1019.82
2023-04-22T05:02:41.448Z,1019.84
2023-04-22T05:05:09.261Z,1019.91
2023-04-22T05:07:37.380Z,1019.81
2023-04-22T05:10:04.933Z,1019.92
2023-04-22T05:12:31.736Z,1019.83
2023-04-22T05:14:59.022Z,1019.82
2023-04-22T05:17:26.363Z,1019.86
2023-04-22T05:19:53.203Z,1019.92
2023-04-22T05:22:20.013Z,1019.92
2023-04-22T05:24:48.112Z,1019.86
2023-04-22T05:27:14.922Z,1019.83
2023-04-22T05:29:42.021Z,1019.79
2023-04-22T05:32:09.305Z,1019.86
2023-04-22T05:34:36.172Z,1019.85
2023-04-22T05:37:03.391Z,1019.87
2023-04-22T05:39:30.251Z,1019.91
2023-04-22T05:41:58.431Z,1019.85
2023-04-22T05:44:25.121Z,1019.83
2023-04-22T05:46:51.887Z,1019.73
2023-04-22T05:49:18.662Z,1019.28
2023-04-22T05:51:45.815Z,1018.70
2023-04-22T05:54:12.569Z,1018.33
2023-04-22T05:56:39.523Z,1017.92
2023-04-22T05:59:07.845Z,1017.75
2023-04-22T06:01:35.898Z,1017.44
2023-04-22T06:04:03.253Z,1017.12
2023-04-22T06:06:30.698Z,1016.99
2023-04-22T06:08:57.528Z,1016.87
2023-04-22T06:11:24.366Z,1016.72
2023-04-22T06:13:51.139Z,1016.49
2023-04-22T06:16:19.245Z,1016.40
2023-04-22T06:18:45.984Z,1016.26
2023-04-22T06:21:12.758Z,1016.17
2023-04-22T06:23:39.509Z,1016.07
2023-04-22T06:26:06.349Z,1016.10
2023-04-22T06:28:33.081Z,1016.27
2023-04-22T06:31:00.007Z,1016.23
2023-04-22T06:33:28.159Z,1016.10
2023-04-22T06:35:54.973Z,1015.99
2023-04-22T06:38:21.700Z,1016.00
2023-04-22T06:40:48.497Z,1015.88
2023-04-22T06:43:15.264Z,1015.78
2023-04-22T06:45:43.325Z,1015.70
2023-04-22T06:48:10.204Z,1015.73
2023-04-22T06:50:38.291Z,1015.90
2023-04-22T06:53:05.061Z,1016.14
2023-04-22T06:55:31.819Z,1016.39
2023-04-22T06:57:58.748Z,1016.16
2023-04-22T07:00:25.566Z,1016.47
2023-04-22T07:02:52.395Z,1016.00
2023-04-22T07:05:19.371Z,1015.66
2023-04-22T07:07:47.735Z,1015.57
2023-04-22T07:10:14.479Z,1015.47
2023-04-22T07:12:41.539Z,1015.47
2023-04-22T07:15:08.918Z,1015.35
2023-04-22T07:17:35.810Z,1015.22
2023-04-22T07:20:02.668Z,1015.23
2023-04-22T07:22:29.442Z,1015.12
2023-04-22T07:24:57.622Z,1015.09
2023-04-22T07:27:24.544Z,1015.11
2023-04-22T07:29:51.283Z,1015.11
2023-04-22T07:32:18.006Z,1014.94
2023-04-22T07:34:44.860Z,1014.97
2023-04-22T07:37:11.640Z,1014.94
2023-04-22T07:39:38.782Z,1014.87
2023-04-22T07:42:07.189Z,1014.73
2023-04-22T07:44:34.008Z,1015.04
2023-04-22T07:47:00.863Z,1014.98
2023-04-22T07:49:27.575Z,1014.84
2023-04-22T07:51:54.448Z,1014.76
2023-04-22T07:54:21.175Z,1014.68
2023-04-22T07:56:48.026Z,1014.68
2023-04-22T07:59:16.128Z,1014.92
2023-04-22T08:01:42.887Z,1014.92
2023-04-22T08:04:09.902Z,1014.68
2023-04-22T08:06:36.978Z,1014.54
2023-04-22T08:09:04.001Z,1014.49
2023-04-22T08:11:30.853Z,1014.21
2023-04-22T08:13:57.601Z,1014.13
2023-04-22T08:16:25.904Z,1013.92
2023-04-22T08:18:52.709Z,1013.91
2023-04-22T08:21:19.705Z,1013.80
2023-04-22T08:23:46.573Z,1013.96
2023-04-22T08:26:13.547Z,1013.84
2023-04-22T08:28:40.374Z,1013.78
2023-04-22T08:31:07.127Z,1013.76
2023-04-22T08:33:35.307Z,1013.72
2023-04-22T08:36:02.213Z,1013.69
2023-04-22T08:38:29.080Z,1013.77
2023-04-22T08:40:57.248Z,1013.54
2023-04-22T08:43:25.584Z,1013.68
2023-04-22T08:45:52.776Z,1013.52
2023-04-22T08:48:19.680Z,1013.53
2023-04-22T08:50:48.932Z,1013.40
2023-04-22T08:53:15.777Z,1013.33
2023-04-22T08:55:44.977Z,1013.32
2023-04-22T08:58:12.064Z,1013.38
2023-04-22T09:00:42.237Z,1013.29
2023-04-22T09:03:09.719Z,1013.22
2023-04-22T09:05:39.602Z,1013.15
2023-04-22T09:08:08.129Z,1013.08
2023-04-22T09:10:38.291Z,1013.20
2023-04-22T09:13:06.197Z,1013.30
2023-04-22T09:15:33.562Z,1013.12
2023-04-22T09:18:02.333Z,1013.07
2023-04-22T09:20:30.111Z,1013.07
2023-04-22T09:23:01.812Z,1013.04
2023-04-22T09:25:30.068Z,1012.99
2023-04-22T09:27:58.592Z,1012.93
2023-04-22T09:30:26.802Z,1012.85
2023-04-22T09:32:54.521Z,1012.84
2023-04-22T09:35:28.734Z,1013.02
2023-04-22T09:37:55.916Z,1012.92
2023-04-22T09:40:25.236Z,1013.00
2023-04-22T09:42:54.595Z,1012.82
2023-04-22T09:45:29.526Z,1012.65
2023-04-22T09:47:57.782Z,1012.52
2023-04-22T09:50:26.468Z,1012.84
2023-04-22T09:52:59.826Z,1012.78
2023-04-22T09:55:28.329Z,1012.81
2023-04-22T09:57:58.221Z,1012.78
2023-04-22T10:00:29.037Z,1012.65
2023-04-22T10:02:55.966Z,1012.42
2023-04-22T10:05:23.335Z,1012.41
2023-04-22T10:07:51.596Z,1012.49
2023-04-22T10:10:18.682Z,1012.47
2023-04-22T10:12:47.339Z,1012.47
2023-04-22T10:15:15.506Z,1012.38
2023-04-22T10:17:44.281Z,1012.37
2023-04-22T10:20:15.999Z,1012.34
2023-04-22T10:22:43.183Z,1012.14
2023-04-22T10:25:14.402Z,1012.12
2023-04-22T10:27:41.563Z,1012.25
2023-04-22T10:30:09.883Z,1012.09
2023-04-22T10:32:38.104Z,1012.09
2023-04-22T10:35:10.509Z,1012.30
2023-04-22T10:37:37.517Z,1012.06
2023-04-22T10:40:09.953Z,1012.11
2023-04-22T10:42:39.404Z,1012.06
2023-04-22T10:45:07.138Z,1012.04
2023-04-22T10:47:35.552Z,1011.97
2023-04-22T10:50:18.671Z,1011.94
2023-04-22T10:52:48.497Z,1011.81
2023-04-22T10:55:15.466Z,1011.62
2023-04-22T10:57:43.850Z,1011.55
2023-04-22T11:00:52.364Z,1011.54
2023-04-22T11:03:27.205Z,1011.62
2023-04-22T11:06:20.224Z,1011.54
2023-04-22T11:08:48.091Z,1011.45
2023-04-22T11:11:17.537Z,1011.41
2023-04-22T11:13:44.464Z,1011.26
2023-04-22T11:16:11.445Z,1011.18
2023-04-22T11:18:38.750Z,1011.45
2023-04-22T11:21:06.587Z,1011.31
2023-04-22T11:23:35.236Z,1011.21
2023-04-22T11:26:04.395Z,1011.19
2023-04-22T11:28:31.458Z,1011.09
2023-04-22T11:31:02.217Z,1011.19
2023-04-22T11:33:29.024Z,1011.44
2023-04-22T11:35:55.756Z,1011.30
2023-04-22T11:38:22.551Z,1011.09
2023-04-22T11:40:50.793Z,1011.16
2023-04-22T11:43:17.599Z,1011.03
2023-04-22T11:45:44.524Z,1010.97
2023-04-22T11:48:11.853Z,1011.02
2023-04-22T11:50:41.447Z,1010.95
2023-04-22T11:53:14.792Z,1010.83
2023-04-22T11:55:42.811Z,1010.67
2023-04-22T11:58:12.948Z,1010.71
2023-04-22T12:00:42.031Z,1010.96
2023-04-22T12:03:15.497Z,1011.17
2023-04-22T12:05:43.968Z,1010.92
2023-04-22T12:08:12.356Z,1010.71
2023-04-22T12:10:40.536Z,1010.60
2023-04-22T12:13:07.673Z,1010.54
2023-04-22T12:15:41.303Z,1010.48
2023-04-22T12:18:08.113Z,1010.79
2023-04-22T12:20:36.041Z,1010.77
2023-04-22T12:23:03.505Z,1010.78
2023-04-22T12:25:30.270Z,1010.67
2023-04-22T12:27:57.011Z,1010.45
2023-04-22T12:30:23.915Z,1010.51
2023-04-22T12:32:52.160Z,1010.47
2023-04-22T12:35:19.613Z,1010.42
2023-04-22T12:37:46.464Z,1010.43
2023-04-22T12:40:13.402Z,1010.31
2023-04-22T12:42:40.249Z,1010.18
2023-04-22T12:45:08.265Z,1010.06
2023-04-22T12:47:35.120Z,1010.09
2023-04-22T12:50:03.626Z,1010.01
2023-04-22T12:52:30.468Z,1010.07
2023-04-22T12:54:57.216Z,1010.11
2023-04-22T12:57:24.125Z,1010.02
2023-04-22T12:59:50.903Z,1010.07
2023-04-22T13:02:17.873Z,1009.94
2023-04-22T13:04:44.722Z,1010.07
2023-04-22T13:07:12.965Z,1010.01
2023-04-22T13:09:41.949Z,1010.08
2023-04-22T13:12:08.900Z,1009.93
2023-04-22T13:14:35.634Z,1009.94
2023-04-22T13:17:02.398Z,1010.00
2023-04-22T13:19:29.241Z,1009.96
2023-04-22T13:21:56.101Z,1009.96
2023-04-22T13:24:24.266Z,1009.82
2023-04-22T13:26:51.141Z,1009.76
2023-04-22T13:29:18.045Z,1009.79
2023-04-22T13:31:44.923Z,1009.69
2023-04-22T13:34:11.697Z,1009.85
2023-04-22T13:36:38.577Z,1009.82
2023-04-22T13:39:05.529Z,1009.72
2023-04-22T13:41:33.676Z,1009.95
2023-04-22T13:44:00.486Z,1010.17
2023-04-22T13:46:27.277Z,1010.35
2023-04-22T13:48:54.251Z,1010.21
2023-04-22T13:51:21.047Z,1010.09
2023-04-22T13:53:48.073Z,1009.89
2023-04-22T13:56:14.839Z,1009.88
2023-04-22T13:58:43.188Z,1009.99
2023-04-22T14:01:10.084Z,1009.89
2023-04-22T14:03:36.958Z,1009.96
2023-04-22T14:06:04.055Z,1009.95
2023-04-22T14:08:30.891Z,1009.97
2023-04-22T14:10:57.879Z,1009.88
2023-04-22T14:13:24.848Z,1009.88
2023-04-22T14:15:53.098Z,1009.94
2023-04-22T14:18:20.093Z,1009.95
2023-04-22T14:20:46.834Z,1010.06
2023-04-22T14:23:13.553Z,1010.03
2023-04-22T14:25:40.367Z,1010.09
2023-04-22T14:28:07.283Z,1009.96
2023-04-22T14:30:34.105Z,1009.98
2023-04-22T14:33:02.662Z,1009.97
2023-04-22T14:35:29.509Z,1009.89
2023-04-22T14:37:56.336Z,1009.93
2023-04-22T14:40:23.138Z,1009.87
2023-04-22T14:42:49.988Z,1009.81
2023-04-22T14:45:16.863Z,1009.83
2023-04-22T14:47:43.597Z,1009.87
2023-04-22T14:50:12.001Z,1010.01
2023-04-22T14:52:39.017Z,1009.93
2023-04-22T14:55:19.357Z,1010.04
2023-04-22T14:57:49.643Z,1009.98
2023-04-22T15:00:16.791Z,1009.93
2023-04-22T15:02:44.540Z,1009.94
2023-04-22T15:05:14.375Z,1009.98
2023-04-22T15:07:41.423Z,1010.11
2023-04-22T15:10:08.880Z,1010.13
2023-04-22T15:12:35.624Z,1010.06
2023-04-22T15:15:02.615Z,1009.96
2023-04-22T15:17:29.467Z,1009.98
2023-04-22T15:19:56.424Z,1010.02
2023-04-22T15:22:24.712Z,1010.12
2023-04-22T15:24:51.729Z,1010.11
2023-04-22T15:27:18.649Z,1010.13
2023-04-22T15:29:45.684Z,1010.09
2023-04-22T15:32:12.940Z,1010.07
2023-04-22T15:34:39.753Z,1010.15
2023-04-22T15:37:06.518Z,1010.10
2023-04-22T15:39:34.977Z,1010.11
2023-04-22T15:42:01.721Z,1010.14
2023-04-22T15:44:29.016Z,1010.19
2023-04-22T15:46:57.711Z,1010.12
2023-04-22T15:49:24.602Z,1010.21
2023-04-22T15:51:51.634Z,1010.16
2023-04-22T15:54:18.547Z,1010.21
2023-04-22T15:56:46.724Z,1010.13
2023-04-22T15:59:13.447Z,1010.18
2023-04-22T16:01:40.806Z,1010.17
2023-04-22T16:04:07.952Z,1010.25
2023-04-22T16:06:35.072Z,1010.33
2023-04-22T16:09:01.788Z,1010.34
2023-04-22T16:11:30.317Z,1010.41
2023-04-22T16:13:58.638Z,1010.48
2023-04-22T16:16:26.105Z,1010.48
2023-04-22T16:18:53.661Z,1010.51
2023-04-22T16:21:20.379Z,1010.56
2023-04-22T16:23:47.776Z,1010.56
2023-04-22T16:26:14.554Z,1010.62
2023-04-22T16:28:41.371Z,1010.67
2023-04-22T16:31:09.557Z,1010.65
2023-04-22T16:33:36.791Z,1010.68
2023-04-22T16:36:03.987Z,1010.68
2023-04-22T16:38:30.786Z,1010.66
2023-04-22T16:40:58.034Z,1010.74
2023-04-22T16:43:24.769Z,1010.74
2023-04-22T16:46:11.428Z,1010.87
2023-04-22T16:48:58.498Z,1010.89
2023-04-22T16:51:25.635Z,1010.99
2023-04-22T16:53:52.377Z,1011.01
2023-04-22T16:56:19.178Z,1011.07
2023-04-22T16:58:45.987Z,1011.26
2023-04-22T17:01:14.186Z,1011.23
2023-04-22T17:03:41.110Z,1011.28
2023-04-22T17:06:08.155Z,1011.23
2023-04-22T17:08:36.157Z,1011.34
2023-04-22T17:11:03.015Z,1011.30
2023-04-22T17:13:29.868Z,1011.37
2023-04-22T17:15:56.713Z,1011.36
2023-04-22T17:18:24.895Z,1011.44
2023-04-22T17:20:52.229Z,1011.47
2023-04-22T17:23:19.023Z,1011.43
2023-04-22T17:25:45.767Z,1011.66
2023-04-22T17:28:12.670Z,1011.56
2023-04-22T17:30:39.617Z,1011.68
2023-04-22T17:33:06.459Z,1011.83
2023-04-22T17:35:34.627Z,1011.87
2023-04-22T17:38:01.462Z,1011.88
2023-04-22T17:40:28.310Z,1012.05
2023-04-22T17:42:55.477Z,1012.17
2023-04-22T17:45:22.228Z,1012.33
2023-04-22T17:47:48.954Z,1012.40
2023-04-22T17:50:15.739Z,1012.62
2023-04-22T17:52:43.963Z,1012.70
2023-04-22T17:55:10.797Z,1012.86
2023-04-22T17:57:37.550Z,1013.00
2023-04-22T18:00:05.088Z,1013.11
2023-04-22T18:02:31.954Z,1013.17
2023-04-22T18:04:58.771Z,1013.33
2023-04-22T18:07:25.586Z,1013.36
2023-04-22T18:09:53.760Z,1013.51
2023-04-22T18:12:20.715Z,1013.66
2023-04-22T18:14:47.618Z,1013.60
2023-04-22T18:17:14.451Z,1013.62
2023-04-22T18:19:41.656Z,1013.68
2023-04-22T18:22:08.668Z,1013.75
2023-04-22T18:24:35.580Z,1013.71
2023-04-22T18:27:03.881Z,1013.71
2023-04-22T18:29:30.734Z,1013.92
2023-04-22T18:31:57.511Z,1013.86
2023-04-22T18:34:24.322Z,1013.90
2023-04-22T18:36:51.121Z,1014.13
2023-04-22T18:39:17.870Z,1014.13
2023-04-22T18:41:44.741Z,1014.28
2023-04-22T18:44:13.214Z,1014.39
2023-04-22T18:46:40.023Z,1014.37
2023-04-22T18:49:06.877Z,1014.47
2023-04-22T18:51:33.664Z,1014.57
2023-04-22T18:54:00.581Z,1014.63
2023-04-22T18:56:27.468Z,1014.62
2023-04-22T18:58:55.347Z,1014.77
2023-04-22T19:01:23.679Z,1014.75
2023-04-22T19:03:50.728Z,1014.80
2023-04-22T19:06:17.577Z,1014.89
2023-04-22T19:08:44.408Z,1014.88
2023-04-22T19:11:11.192Z,1014.98
2023-04-22T19:13:37.904Z,1014.95
2023-04-22T19:16:04.947Z,1015.00
2023-04-22T19:18:33.273Z,1015.06
2023-04-22T19:21:00.138Z,1015.13
2023-04-22T19:23:27.308Z,1015.14
2023-04-22T19:25:54.176Z,1015.14
2023-04-22T19:28:20.985Z,1015.20
2023-04-22T19:30:47.816Z,1015.37
2023-04-22T19:33:14.783Z,1015.32
2023-04-22T19:35:42.901Z,1015.37
2023-04-22T19:38:09.671Z,1015.32
2023-04-22T19:40:36.562Z,1015.31
2023-04-22T19:43:03.308Z,1015.43
2023-04-22T19:45:30.201Z,1015.34
2023-04-22T19:47:57.538Z,1015.42
2023-04-22T19:50:24.665Z,1015.45
2023-04-22T19:53:01.055Z,1015.51
2023-04-22T19:55:28.130Z,1015.49
2023-04-22T19:57:55.230Z,1015.49
2023-04-22T20:00:23.020Z,1015.54
2023-04-22T20:02:50.529Z,1015.43
2023-04-22T20:05:18.630Z,1015.39
2023-04-22T20:07:47.439Z,1015.52
2023-04-22T20:10:16.203Z,1015.58
2023-04-22T20:12:44.278Z,1015.71
2023-04-22T20:15:11.724Z,1015.63
2023-04-22T20:17:39.114Z,1015.63
2023-04-22T20:20:07.662Z,1015.62
2023-04-22T20:22:35.231Z,1015.65
2023-04-22T20:25:04.178Z,1015.64
2023-04-22T20:27:33.807Z,1015.63
2023-04-22T20:30:01.589Z,1015.55
2023-04-22T20:32:29.199Z,1015.58
2023-04-22T20:34:56.895Z,1015.66
2023-04-22T20:37:24.908Z,1015.58
2023-04-22T20:39:53.114Z,1015.69
2023-04-22T20:42:20.691Z,1015.66
2023-04-22T20:44:48.809Z,1015.65
2023-04-22T20:47:15.581Z,1015.61
2023-04-22T20:49:42.503Z,1015.57
2023-04-22T20:52:10.021Z,1015.50
2023-04-22T20:54:37.164Z,1015.56
2023-04-22T20:57:04.098Z,1015.47
2023-04-22T20:59:30.864Z,1015.52
2023-04-22T21:02:00.034Z,1015.53
2023-04-22T21:04:27.949Z,1015.51
2023-04-22T21:06:55.819Z,1015.62
2023-04-22T21:09:23.656Z,1015.64
2023-04-22T21:11:51.068Z,1015.59
2023-04-22T21:14:18.070Z,1015.65
2023-04-22T21:16:53.251Z,1015.57
2023-04-22T21:19:23.205Z,1015.72
2023-04-22T21:21:52.524Z,1015.72
2023-04-22T21:24:21.043Z,1015.66
2023-04-22T21:26:47.931Z,1015.65
2023-04-22T21:29:15.138Z,1015.64
2023-04-22T21:31:41.876Z,1015.71
2023-04-22T21:34:08.659Z,1015.74
2023-04-22T21:36:36.886Z,1015.60
2023-04-22T21:39:03.857Z,1015.63
2023-04-22T21:41:31.152Z,1015.60
2023-04-22T21:43:57.962Z,1015.57
2023-04-22T21:46:24.927Z,1015.64
2023-04-22T21:48:51.717Z,1015.67
2023-04-22T21:51:18.528Z,1015.66
2023-04-22T21:53:46.891Z,1015.65
2023-04-22T21:56:13.693Z,1015.81
2023-04-22T21:58:40.416Z,1015.83
2023-04-22T22:01:07.207Z,1015.89
2023-04-22T22:03:34.165Z,1015.96
2023-04-22T22:06:01.133Z,1015.93
2023-04-22T22:08:27.956Z,1015.94
2023-04-22T22:10:56.372Z,1015.90
2023-04-22T22:13:23.128Z,1016.05
2023-04-22T22:15:49.942Z,1015.97
2023-04-22T22:18:17.037Z,1016.01
2023-04-22T22:20:43.765Z,1016.02
2023-04-22T22:23:10.509Z,1016.03
2023-04-22T22:25:37.348Z,1015.97
2023-04-22T22:28:05.501Z,1015.96
2023-04-22T22:30:32.368Z,1016.02
2023-04-22T22:32:59.126Z,1016.13
2023-04-22T22:35:25.893Z,1016.14
2023-04-22T22:37:53.060Z,1016.15
2023-04-22T22:40:19.910Z,1016.19
2023-04-22T22:42:46.955Z,1016.13
2023-04-22T22:45:15.240Z,1016.12
2023-04-22T22:47:42.061Z,1016.11
2023-04-22T22:50:09.150Z,1016.11
2023-04-22T22:52:35.926Z,1016.11
2023-04-22T22:55:02.711Z,1016.12
2023-04-22T22:57:29.431Z,1016.16
2023-04-22T22:59:56.213Z,1016.15
2023-04-22T23:02:24.464Z,1016.21
2023-04-22T23:04:51.469Z,1016.05
2023-04-22T23:07:19.491Z,1016.02
2023-04-22T23:09:46.358Z,1016.16
2023-04-22T23:12:13.099Z,1016.10
2023-04-22T23:14:40.001Z,1016.15
2023-04-22T23:17:07.046Z,1016.26
2023-04-22T23:19:35.667Z,1016.31
2023-04-22T23:22:03.373Z,1016.22
2023-04-22T23:24:30.920Z,1016.19
2023-04-22T23:26:58.073Z,1016.15
2023-04-22T23:29:25.322Z,1016.16
2023-04-22T23:31:52.405Z,1016.18
2023-04-22T23:34:22.320Z,1016.16
2023-04-22T23:36:50.841Z,1016.15
2023-04-22T23:39:17.701Z,1016.05
2023-04-22T23:41:44.557Z,1016.06
2023-04-22T23:44:11.298Z,1016.16
2023-04-22T23:46:38.307Z,1016.18
2023-04-22T23:49:05.221Z,1016.12
2023-04-22T23:51:31.959Z,1016.15
2023-04-22T23:54:00.160Z,1016.20
2023-04-22T23:56:27.415Z,1016.23
2023-04-22T23:58:54.587Z,1016.31
